Time;durP1;ratioP1;P1;durP2;ratioP2;P2;SDS_P1;SDS_P2;PMS_P1;PMS_P2;Temp;Humidity;BMP_temperature;BMP_pressure;BME280_temperature;BME280_humidity;BME280_pressure;Samples;Min_cycle;Max_cycle;Signal;HPM_P1;HPM_P2
2021/04/12 00:01:00;;;;;;;1.10;1.00;;;10.60;60.10;;;;;;4965377;28;20509;-54
2021/04/12 00:03:28;;;;;;;1.70;1.00;;;10.60;60.20;;;;;;4972094;28;20442;-54
2021/04/12 00:05:57;;;;;;;1.17;1.07;;;10.50;60.30;;;;;;4972921;28;20438;-53
2021/04/12 00:08:25;;;;;;;1.10;1.00;;;10.50;60.30;;;;;;4960250;28;20444;-54
2021/04/12 00:10:57;;;;;;;0.90;0.90;;;10.40;60.30;;;;;;4966473;28;20474;-55
2021/04/12 00:13:32;;;;;;;2.27;0.90;;;10.50;60.50;;;;;;4963759;28;20490;-52
2021/04/12 00:16:01;;;;;;;1.00;0.83;;;10.50;60.50;;;;;;4968163;28;20461;-55
2021/04/12 00:18:30;;;;;;;1.67;0.83;;;10.40;60.40;;;;;;4965849;28;20489;-55
2021/04/12 00:20:58;;;;;;;3.00;1.10;;;10.40;60.60;;;;;;4964234;28;20511;-54
2021/04/12 00:23:29;;;;;;;1.27;0.90;;;10.40;60.80;;;;;;4963125;28;20439;-56
2021/04/12 00:26:04;;;;;;;6.10;1.00;;;10.40;60.70;;;;;;4965090;28;20474;-56
2021/04/12 00:28:34;;;;;;;1.70;1.00;;;10.40;60.70;;;;;;4963519;28;20447;-54
2021/04/12 00:31:04;;;;;;;0.90;0.83;;;10.30;60.80;;;;;;4964240;28;20489;-55
2021/04/12 00:33:34;;;;;;;1.23;0.83;;;10.40;60.80;;;;;;4965987;28;20552;-56
2021/04/12 00:36:03;;;;;;;0.80;0.80;;;10.30;60.90;;;;;;4963486;28;20434;-55
2021/04/12 00:38:31;;;;;;;1.20;0.90;;;10.30;61.00;;;;;;4966002;28;20458;-54
2021/04/12 00:41:02;;;;;;;2.40;1.10;;;10.30;61.10;;;;;;4974275;28;20474;-56
2021/04/12 00:43:32;;;;;;;0.97;0.97;;;10.30;61.20;;;;;;4974487;28;20537;-54
2021/04/12 00:46:26;;;;;;;2.10;1.00;;;10.20;61.20;;;;;;4974052;28;20470;-51
2021/04/12 00:49:34;;;;;;;1.63;1.03;;;10.30;61.20;;;;;;4974359;28;20553;-53
2021/04/12 00:52:04;;;;;;;1.33;1.00;;;10.20;61.20;;;;;;5034145;28;20495;-56
2021/04/12 00:54:42;;;;;;;6.20;1.23;;;10.20;61.30;;;;;;4986326;28;20450;-56
2021/04/12 00:57:14;;;;;;;1.93;1.00;;;10.20;61.50;;;;;;4974284;28;20442;-53
2021/04/12 00:59:47;;;;;;;2.33;0.93;;;10.20;61.40;;;;;;4974136;28;20474;-55
2021/04/12 01:02:25;;;;;;;1.93;1.10;;;10.20;61.50;;;;;;4974440;28;20441;-56
2021/04/12 01:04:57;;;;;;;4.33;1.07;;;10.10;61.50;;;;;;4972427;28;20461;-54
2021/04/12 01:07:36;;;;;;;1.67;0.90;;;10.10;61.50;;;;;;4973777;28;20476;-51
2021/04/12 01:10:28;;;;;;;2.30;1.20;;;10.10;61.50;;;;;;4973942;28;20514;-56
2021/04/12 01:13:12;;;;;;;1.63;1.00;;;10.10;61.60;;;;;;4973575;28;20481;-55
2021/04/12 01:15:52;;;;;;;1.33;1.00;;;10.10;61.80;;;;;;4973204;28;20462;-53
2021/04/12 01:18:36;;;;;;;1.47;0.80;;;10.00;61.80;;;;;;4973621;28;20450;-55
2021/04/12 01:21:35;;;;;;;1.20;0.97;;;10.10;61.90;;;;;;4973825;28;20478;-56
2021/04/12 01:24:34;;;;;;;1.20;1.10;;;10.00;61.80;;;;;;4971907;28;20474;-56
2021/04/12 01:27:43;;;;;;;1.00;1.00;;;10.00;61.90;;;;;;4973536;28;20530;-51
2021/04/12 01:30:43;;;;;;;2.70;1.03;;;10.00;62.00;;;;;;4973286;28;20472;-55
2021/04/12 01:33:50;;;;;;;1.10;0.80;;;9.90;63.20;;;;;;4973630;28;20524;-56
2021/04/12 01:36:23;;;;;;;1.03;1.03;;;10.00;62.10;;;;;;4973254;28;20479;-55
2021/04/12 01:38:58;;;;;;;3.03;1.13;;;9.90;63.40;;;;;;4973340;28;20511;-55
2021/04/12 01:41:30;;;;;;;0.90;0.80;;;9.90;63.40;;;;;;4973888;28;20445;-55
2021/04/12 01:44:20;;;;;;;1.83;1.00;;;9.90;63.40;;;;;;4973393;28;20504;-54
2021/04/12 01:46:59;;;;;;;1.20;0.80;;;9.90;63.40;;;;;;4982623;28;20485;-55
2021/04/12 01:49:54;;;;;;;1.00;0.90;;;9.90;64.20;;;;;;4968122;28;20650;-50
2021/04/12 01:52:29;;;;;;;2.90;1.00;;;9.90;63.60;;;;;;4973202;28;20565;-54
2021/04/12 01:55:17;;;;;;;1.10;0.93;;;9.90;63.40;;;;;;4972769;28;20466;-54
2021/04/12 01:58:23;;;;;;;1.80;1.40;;;9.90;63.50;;;;;;5002270;28;20470;-53
2021/04/12 02:01:01;;;;;;;2.23;1.47;;;9.80;63.60;;;;;;4993626;28;20529;-53
2021/04/12 02:03:36;;;;;;;1.43;0.80;;;9.80;63.60;;;;;;4972802;28;20466;-52
2021/04/12 02:06:19;;;;;;;1.33;1.20;;;9.80;63.60;;;;;;4972853;28;20442;-53
2021/04/12 02:08:52;;;;;;;1.03;1.00;;;9.80;64.30;;;;;;4973116;28;20474;-53
2021/04/12 02:11:40;;;;;;;1.73;0.80;;;9.80;63.70;;;;;;4973138;28;20510;-52
2021/04/12 02:14:16;;;;;;;1.53;1.03;;;9.80;63.70;;;;;;4973073;28;20504;-53
2021/04/12 02:16:53;;;;;;;1.10;1.00;;;9.80;63.80;;;;;;4972548;28;20485;-55
2021/04/12 02:19:39;;;;;;;1.37;1.00;;;9.80;63.80;;;;;;4973158;28;20462;-53
2021/04/12 02:22:28;;;;;;;1.20;0.80;;;9.80;63.80;;;;;;4972851;28;20443;-53
2021/04/12 02:25:01;;;;;;;1.17;1.07;;;9.80;63.80;;;;;;4972650;28;20474;-52
2021/04/12 02:27:31;;;;;;;2.37;0.80;;;9.80;63.90;;;;;;4973202;28;20514;-53
2021/04/12 02:30:01;;;;;;;0.83;0.83;;;9.70;63.80;;;;;;4972935;28;20478;-54
2021/04/12 02:32:43;;;;;;;1.37;0.93;;;9.70;63.80;;;;;;4972306;28;20470;-52
2021/04/12 02:35:18;;;;;;;3.00;1.17;;;9.70;63.90;;;;;;4972396;28;20474;-53
2021/04/12 02:37:59;;;;;;;2.70;1.00;;;9.70;64.00;;;;;;4972544;28;20454;-55
2021/04/12 02:40:35;;;;;;;2.60;1.10;;;9.70;64.00;;;;;;4972712;28;20517;-54
2021/04/12 02:43:05;;;;;;;2.60;0.90;;;9.60;64.00;;;;;;4972504;28;20535;-53
2021/04/12 02:45:42;;;;;;;1.73;1.30;;;9.70;64.00;;;;;;4971914;28;20490;-56
2021/04/12 02:48:35;;;;;;;2.70;1.20;;;9.60;64.00;;;;;;4972209;28;20480;-53
2021/04/12 02:51:08;;;;;;;0.97;0.90;;;9.60;64.10;;;;;;4978050;28;20494;-53
2021/04/12 02:53:49;;;;;;;3.20;1.10;;;9.60;64.20;;;;;;4972200;28;20505;-55
2021/04/12 02:56:40;;;;;;;1.10;1.00;;;9.60;64.20;;;;;;4972263;28;20446;-55
2021/04/12 02:59:28;;;;;;;1.67;1.10;;;9.60;64.20;;;;;;4975246;28;20442;-53
2021/04/12 03:02:26;;;;;;;1.13;1.03;;;9.60;64.20;;;;;;4972286;28;20525;-54
2021/04/12 03:04:57;;;;;;;1.27;0.97;;;9.60;64.20;;;;;;4967338;28;20473;-56
2021/04/12 03:07:46;;;;;;;2.20;1.20;;;9.50;64.30;;;;;;4972326;28;20484;-53
2021/04/12 03:10:23;;;;;;;1.37;1.20;;;9.50;64.30;;;;;;4971899;28;20462;-52
2021/04/12 03:12:59;;;;;;;1.40;1.03;;;9.50;64.30;;;;;;4971896;28;20539;-54
2021/04/12 03:16:09;;;;;;;1.63;1.40;;;9.50;64.50;;;;;;4971963;28;20452;-53
2021/04/12 03:19:16;;;;;;;1.57;0.83;;;9.50;64.50;;;;;;4972021;28;20438;-56
2021/04/12 03:22:01;;;;;;;1.20;1.17;;;9.50;64.60;;;;;;4972141;28;20529;-54
2021/04/12 03:24:29;;;;;;;1.23;1.07;;;9.50;64.60;;;;;;4971853;28;20438;-51
2021/04/12 03:27:21;;;;;;;1.33;1.20;;;9.50;64.50;;;;;;4972887;28;20511;-52
2021/04/12 03:29:56;;;;;;;1.27;1.10;;;9.50;64.40;;;;;;4975508;28;20526;-51
2021/04/12 03:32:42;;;;;;;5.07;1.03;;;9.40;65.20;;;;;;4975455;28;20561;-54
2021/04/12 03:35:10;;;;;;;0.97;0.80;;;9.40;64.60;;;;;;4974950;28;20465;-56
2021/04/12 03:37:43;;;;;;;1.47;1.07;;;9.40;64.50;;;;;;4975058;28;20462;-55
2021/04/12 03:40:18;;;;;;;1.13;1.03;;;9.40;64.70;;;;;;4975382;28;20442;-52
2021/04/12 03:43:16;;;;;;;1.10;1.10;;;9.40;64.70;;;;;;4975255;28;20526;-51
2021/04/12 03:46:18;;;;;;;1.37;1.27;;;9.40;64.80;;;;;;4974631;28;20473;-54
2021/04/12 03:49:07;;;;;;;1.20;1.00;;;9.40;64.80;;;;;;4973319;28;20498;-53
2021/04/12 03:51:47;;;;;;;2.70;1.10;;;9.30;64.70;;;;;;4975163;28;20496;-53
2021/04/12 03:54:35;;;;;;;2.03;1.13;;;9.30;64.80;;;;;;4974713;28;20441;-53
2021/04/12 03:57:14;;;;;;;3.23;1.40;;;9.30;64.80;;;;;;4975047;28;20507;-54
2021/04/12 03:59:43;;;;;;;1.13;1.00;;;9.30;64.80;;;;;;4974771;28;20470;-55
2021/04/12 04:02:24;;;;;;;1.97;1.30;;;9.30;64.80;;;;;;4974585;28;20439;-53
2021/04/12 04:05:16;;;;;;;0.90;0.90;;;9.30;64.80;;;;;;4974319;28;20548;-55
2021/04/12 04:08:21;;;;;;;1.33;1.23;;;9.30;64.90;;;;;;4989589;28;20437;-56
2021/04/12 04:11:01;;;;;;;1.20;1.10;;;9.30;64.90;;;;;;4971515;28;20481;-52
2021/04/12 04:13:33;;;;;;;3.40;1.10;;;9.20;65.00;;;;;;4974336;28;20528;-54
2021/04/12 04:16:28;;;;;;;0.97;0.90;;;9.30;65.00;;;;;;4964203;28;20470;-55
2021/04/12 04:18:59;;;;;;;1.10;1.00;;;9.20;64.90;;;;;;4950558;28;20486;-54
2021/04/12 04:22:02;;;;;;;1.30;1.20;;;9.20;65.10;;;;;;4955237;28;20435;-56
2021/04/12 04:24:54;;;;;;;1.40;1.30;;;9.20;65.10;;;;;;4979246;28;20489;-54
2021/04/12 04:28:01;;;;;;;1.57;1.00;;;9.20;65.00;;;;;;4954842;28;20530;-55
2021/04/12 04:30:47;;;;;;;1.30;1.20;;;9.20;65.00;;;;;;4955480;28;20443;-53
2021/04/12 04:33:33;;;;;;;1.70;1.20;;;9.20;65.10;;;;;;4954901;28;20479;-52
2021/04/12 04:36:23;;;;;;;1.30;1.17;;;9.20;65.20;;;;;;4954889;28;20455;-54
2021/04/12 04:39:07;;;;;;;0.80;0.80;;;9.20;65.10;;;;;;4954982;28;20474;-54
2021/04/12 04:41:44;;;;;;;1.83;1.10;;;9.20;65.20;;;;;;4955631;28;20551;-52
2021/04/12 04:44:50;;;;;;;0.90;0.90;;;9.20;65.10;;;;;;4954625;28;20466;-54
2021/04/12 04:47:46;;;;;;;1.63;1.10;;;9.10;65.10;;;;;;5014125;28;20498;-54
2021/04/12 04:50:27;;;;;;;2.07;0.90;;;9.10;65.10;;;;;;5001781;28;20567;-53
2021/04/12 04:53:01;;;;;;;1.50;1.20;;;9.10;65.20;;;;;;4970215;28;20479;-53
2021/04/12 04:55:36;;;;;;;2.60;1.00;;;9.10;65.10;;;;;;4954871;28;20506;-52
2021/04/12 04:58:19;;;;;;;2.57;1.00;;;9.10;65.10;;;;;;4954946;28;20526;-53
2021/04/12 05:00:57;;;;;;;1.67;1.20;;;9.10;65.10;;;;;;4954609;28;20550;-54
2021/04/12 05:04:03;;;;;;;0.90;0.90;;;9.10;65.10;;;;;;4954857;28;20554;-51
2021/04/12 05:06:47;;;;;;;1.43;1.10;;;9.10;65.10;;;;;;4954699;28;20447;-54
2021/04/12 05:09:33;;;;;;;1.90;1.33;;;9.10;65.00;;;;;;4954337;28;20462;-54
2021/04/12 05:12:16;;;;;;;2.60;1.03;;;9.10;65.10;;;;;;4954326;28;20447;-52
2021/04/12 05:15:00;;;;;;;1.00;1.00;;;9.10;65.10;;;;;;4954126;28;20466;-54
2021/04/12 05:17:59;;;;;;;1.10;0.90;;;9.10;65.00;;;;;;4954801;28;20447;-54
2021/04/12 05:20:40;;;;;;;2.70;1.27;;;9.10;65.20;;;;;;4954389;28;20491;-55
2021/04/12 05:23:21;;;;;;;1.60;1.33;;;9.10;65.20;;;;;;4954227;28;20467;-55
2021/04/12 05:26:04;;;;;;;2.33;1.10;;;9.10;65.20;;;;;;4954085;28;20490;-55
2021/04/12 05:28:59;;;;;;;1.57;1.10;;;9.10;65.20;;;;;;4954707;28;20435;-56
2021/04/12 05:31:55;;;;;;;1.73;1.17;;;9.10;65.70;;;;;;4954148;28;20497;-54
2021/04/12 05:34:43;;;;;;;3.77;1.10;;;9.10;65.10;;;;;;4953716;28;20574;-52
2021/04/12 05:37:17;;;;;;;1.00;0.90;;;9.10;65.10;;;;;;4954186;28;20439;-55
2021/04/12 05:40:13;;;;;;;1.10;1.10;;;9.10;65.10;;;;;;4954145;28;20561;-51
2021/04/12 05:42:52;;;;;;;1.33;1.17;;;9.10;65.10;;;;;;4953902;28;20530;-56
2021/04/12 05:45:33;;;;;;;1.30;1.20;;;9.10;65.00;;;;;;4953720;28;20494;-55
2021/04/12 05:48:23;;;;;;;2.10;1.10;;;9.10;65.10;;;;;;4953816;28;20448;-51
2021/04/12 05:51:01;;;;;;;1.50;1.40;;;9.10;65.10;;;;;;4953174;28;20501;-53
2021/04/12 05:53:40;;;;;;;1.10;1.00;;;9.10;65.00;;;;;;4953660;28;20475;-56
2021/04/12 05:56:30;;;;;;;1.30;1.20;;;9.10;65.00;;;;;;4953466;28;20490;-56
2021/04/12 05:59:11;;;;;;;1.53;1.23;;;9.20;65.80;;;;;;4977925;28;20447;-54
2021/04/12 06:01:48;;;;;;;1.40;1.30;;;9.20;64.90;;;;;;4953710;28;20473;-55
2021/04/12 06:04:23;;;;;;;1.83;1.10;;;9.20;64.90;;;;;;4953438;28;20546;-55
2021/04/12 06:07:12;;;;;;;1.50;1.37;;;9.20;64.90;;;;;;4953716;28;20439;-54
2021/04/12 06:09:48;;;;;;;1.43;1.20;;;9.30;64.90;;;;;;4953625;28;20439;-53
2021/04/12 06:12:29;;;;;;;2.10;1.20;;;9.30;65.50;;;;;;4953609;28;20457;-52
2021/04/12 06:15:03;;;;;;;1.50;1.27;;;9.40;64.90;;;;;;4953750;28;20492;-55
2021/04/12 06:17:54;;;;;;;1.33;1.23;;;9.40;64.90;;;;;;4953829;28;20466;-54
2021/04/12 06:20:52;;;;;;;1.60;1.30;;;9.40;64.70;;;;;;4957903;28;20506;-55
2021/04/12 06:23:34;;;;;;;1.50;1.40;;;9.50;64.70;;;;;;4953695;28;20474;-50
2021/04/12 06:26:24;;;;;;;1.53;1.27;;;9.60;64.70;;;;;;4953509;28;20462;-52
2021/04/12 06:29:27;;;;;;;1.43;1.20;;;9.60;64.60;;;;;;4953242;28;20455;-54
2021/04/12 06:32:21;;;;;;;2.57;1.20;;;9.70;64.50;;;;;;4953835;28;20493;-52
2021/04/12 06:35:19;;;;;;;1.77;1.30;;;9.80;64.30;;;;;;4953095;28;20470;-56
2021/04/12 06:38:17;;;;;;;2.10;1.27;;;9.90;64.30;;;;;;4953559;28;20443;-54
2021/04/12 06:41:19;;;;;;;1.07;1.07;;;9.90;64.20;;;;;;4953225;28;20479;-53
2021/04/12 06:44:22;;;;;;;1.33;1.10;;;10.00;63.00;;;;;;4953276;28;20512;-52
2021/04/12 06:47:16;;;;;;;1.30;1.23;;;10.10;63.70;;;;;;4953430;28;20446;-53
2021/04/12 06:50:19;;;;;;;2.10;1.43;;;10.20;63.10;;;;;;4954329;28;20475;-55
2021/04/12 06:53:14;;;;;;;2.03;1.30;;;10.20;62.90;;;;;;4952938;28;20515;-55
2021/04/12 06:56:21;;;;;;;1.20;1.10;;;10.30;62.90;;;;;;4952758;28;20443;-54
2021/04/12 06:59:18;;;;;;;2.10;1.20;;;10.40;63.00;;;;;;4952811;28;20447;-54
2021/04/12 07:02:28;;;;;;;1.60;1.50;;;10.50;63.00;;;;;;4953068;28;20467;-53
2021/04/12 07:05:21;;;;;;;1.47;1.10;;;10.50;62.80;;;;;;4971292;28;20538;-53
2021/04/12 07:08:04;;;;;;;1.50;1.30;;;10.60;62.80;;;;;;4956530;28;20459;-54
2021/04/12 07:11:05;;;;;;;1.10;1.10;;;10.70;62.80;;;;;;4956298;28;20475;-55
2021/04/12 07:13:45;;;;;;;2.03;1.30;;;10.80;62.60;;;;;;4956401;28;20578;-52
2021/04/12 07:16:41;;;;;;;1.50;1.40;;;10.90;62.50;;;;;;4956280;28;20419;-54
2021/04/12 07:19:26;;;;;;;1.50;1.03;;;11.00;62.30;;;;;;4965132;28;20501;-54
2021/04/12 07:22:33;;;;;;;1.67;1.10;;;11.20;62.30;;;;;;4956312;28;20439;-54
2021/04/12 07:25:30;;;;;;;1.23;1.13;;;11.30;62.00;;;;;;4955728;28;20442;-54
2021/04/12 07:28:27;;;;;;;1.40;1.30;;;11.50;61.90;;;;;;4956222;28;20435;-53
2021/04/12 07:31:28;;;;;;;4.53;1.20;;;11.60;61.80;;;;;;4956134;28;20430;-54
2021/04/12 07:34:17;;;;;;;1.97;1.37;;;11.70;61.50;;;;;;4956234;28;20555;-53
2021/04/12 07:37:18;;;;;;;4.63;1.00;;;11.90;61.10;;;;;;4956205;28;20458;-54
2021/04/12 07:40:38;;;;;;;6.00;1.17;;;12.10;61.10;;;;;;4960593;28;20447;-56
2021/04/12 07:43:40;;;;;;;2.33;1.20;;;12.20;60.70;;;;;;4955599;28;20443;-53
2021/04/12 07:46:32;;;;;;;1.30;1.20;;;12.40;60.50;;;;;;4978962;28;20450;-53
2021/04/12 07:49:28;;;;;;;1.23;1.00;;;12.60;60.40;;;;;;4955877;28;20459;-53
2021/04/12 07:52:15;;;;;;;1.30;1.20;;;12.70;60.10;;;;;;4955543;28;20538;-53
2021/04/12 07:55:11;;;;;;;1.10;1.10;;;12.90;59.80;;;;;;4955622;28;20533;-52
2021/04/12 07:58:29;;;;;;;1.10;1.00;;;13.00;59.70;;;;;;4955907;28;20479;-55
2021/04/12 08:01:28;;;;;;;2.07;1.20;;;13.20;59.60;;;;;;4983157;28;20453;-56
2021/04/12 08:04:29;;;;;;;1.40;1.07;;;13.50;59.50;;;;;;4968203;28;20458;-55
2021/04/12 08:07:32;;;;;;;1.67;1.20;;;13.80;59.20;;;;;;4974823;28;20529;-56
2021/04/12 08:10:25;;;;;;;1.10;1.00;;;14.00;59.00;;;;;;4974506;28;20468;-55
2021/04/12 08:13:27;;;;;;;1.60;1.50;;;14.30;58.60;;;;;;4942182;28;20510;-56
2021/04/12 08:16:35;;;;;;;2.03;1.43;;;14.30;58.50;;;;;;4955205;28;20531;-55
2021/04/12 08:19:27;;;;;;;5.10;1.10;;;14.20;58.80;;;;;;4954232;28;20450;-54
2021/04/12 08:22:31;;;;;;;1.60;1.50;;;14.20;58.80;;;;;;4955398;28;20447;-57
2021/04/12 08:25:47;;;;;;;1.40;1.30;;;14.30;58.70;;;;;;4955177;28;20529;-56
2021/04/12 08:28:36;;;;;;;1.33;1.23;;;14.20;58.80;;;;;;4955481;28;20447;-54
2021/04/12 08:31:30;;;;;;;1.73;1.10;;;14.30;59.00;;;;;;4954990;28;20522;-56
2021/04/12 08:34:32;;;;;;;1.60;1.50;;;14.30;59.00;;;;;;4955259;28;20479;-55
2021/04/12 08:37:07;;;;;;;1.30;1.20;;;14.60;58.70;;;;;;4955522;28;20448;-55
2021/04/12 08:40:16;;;;;;;1.53;1.10;;;14.70;58.50;;;;;;4955437;28;20435;-54
2021/04/12 08:43:23;;;;;;;1.53;1.10;;;14.80;58.60;;;;;;4948191;28;20516;-56
2021/04/12 08:46:19;;;;;;;1.60;1.30;;;15.20;58.10;;;;;;4954547;28;20504;-53
2021/04/12 08:48:50;;;;;;;1.43;1.33;;;15.20;57.90;;;;;;4966396;28;20501;-54
2021/04/12 08:51:41;;;;;;;1.43;1.20;;;15.00;58.10;;;;;;4955019;28;20474;-53
2021/04/12 08:54:22;;;;;;;2.30;1.57;;;15.10;58.10;;;;;;4954300;28;20554;-53
2021/04/12 08:56:58;;;;;;;1.83;1.63;;;15.20;58.00;;;;;;4955127;28;20440;-53
2021/04/12 08:59:45;;;;;;;1.30;1.20;;;15.20;58.00;;;;;;4954642;28;20450;-55
2021/04/12 09:02:51;;;;;;;2.50;1.57;;;15.10;58.00;;;;;;4954685;28;20503;-53
2021/04/12 09:05:54;;;;;;;3.80;1.77;;;15.10;58.00;;;;;;4986197;28;20474;-53
2021/04/12 09:08:47;;;;;;;1.83;1.43;;;15.20;58.00;;;;;;4945262;28;20504;-52
2021/04/12 09:11:34;;;;;;;1.53;1.43;;;15.40;57.70;;;;;;4954470;28;20443;-55
2021/04/12 09:14:49;;;;;;;1.77;1.67;;;15.60;57.10;;;;;;4954375;28;20482;-52
2021/04/12 09:17:26;;;;;;;1.50;1.17;;;15.70;57.30;;;;;;4954287;28;20435;-56
2021/04/12 09:20:12;;;;;;;1.73;1.63;;;15.60;57.20;;;;;;4954365;28;20460;-56
2021/04/12 09:23:13;;;;;;;2.00;1.80;;;15.60;57.50;;;;;;4954538;28;20435;-52
2021/04/12 09:26:06;;;;;;;1.70;1.43;;;15.50;57.50;;;;;;4952865;28;20466;-53
2021/04/12 09:29:21;;;;;;;1.97;1.73;;;15.40;57.60;;;;;;4954372;28;20475;-53
2021/04/12 09:32:18;;;;;;;11.83;1.70;;;15.70;58.10;;;;;;5013559;28;20515;-53
2021/04/12 09:35:04;;;;;;;3.67;1.70;;;15.70;57.30;;;;;;5013130;28;20488;-55
2021/04/12 09:38:12;;;;;;;1.67;1.53;;;16.00;57.20;;;;;;4961282;28;20447;-52
2021/04/12 09:41:11;;;;;;;1.50;1.40;;;16.40;56.90;;;;;;4954212;28;20485;-55
2021/04/12 09:43:49;;;;;;;2.60;1.47;;;16.60;56.10;;;;;;4954211;28;20471;-56
2021/04/12 09:46:48;;;;;;;1.90;1.80;;;16.60;56.20;;;;;;4953798;28;20446;-52
2021/04/12 09:49:51;;;;;;;1.90;1.70;;;16.80;56.10;;;;;;4953617;28;20478;-53
2021/04/12 09:52:37;;;;;;;1.67;1.57;;;17.40;55.30;;;;;;4975460;28;20478;-53
2021/04/12 09:55:32;;;;;;;2.00;1.80;;;17.80;54.20;;;;;;4953991;28;20463;-55
2021/04/12 09:58:20;;;;;;;1.73;1.63;;;17.90;54.30;;;;;;4954032;28;20459;-54
2021/04/12 10:01:11;;;;;;;1.80;1.70;;;18.00;54.10;;;;;;4953793;28;20500;-55
2021/04/12 10:04:25;;;;;;;1.77;1.40;;;17.70;54.70;;;;;;4953764;28;20498;-55
2021/04/12 10:07:12;;;;;;;3.80;1.70;;;18.00;54.80;;;;;;4953722;28;20508;-54
2021/04/12 10:09:55;;;;;;;2.27;1.30;;;18.60;53.70;;;;;;4953935;28;20515;-52
2021/04/12 10:12:30;;;;;;;1.80;1.70;;;18.80;53.30;;;;;;4953789;28;20462;-53
2021/04/12 10:15:01;;;;;;;2.80;1.50;;;18.90;52.90;;;;;;4953304;28;20474;-53
2021/04/12 10:17:30;;;;;;;3.03;1.20;;;18.90;53.00;;;;;;4953476;28;20450;-53
2021/04/12 10:19:59;;;;;;;1.73;1.33;;;19.00;53.30;;;;;;4953411;28;20444;-54
2021/04/12 10:22:39;;;;;;;1.60;1.50;;;19.10;52.70;;;;;;4954186;28;20479;-54
2021/04/12 10:25:08;;;;;;;3.73;1.40;;;18.80;53.00;;;;;;4953397;28;20513;-54
2021/04/12 10:27:38;;;;;;;1.50;1.40;;;19.00;53.20;;;;;;4953311;28;20466;-55
2021/04/12 10:30:07;;;;;;;1.50;1.40;;;19.60;52.40;;;;;;4953344;28;20520;-55
2021/04/12 10:32:36;;;;;;;1.87;1.70;;;19.90;51.60;;;;;;4953255;28;20442;-54
2021/04/12 10:35:07;;;;;;;1.73;1.63;;;19.80;51.70;;;;;;4953456;28;20482;-52
2021/04/12 10:37:36;;;;;;;1.97;1.63;;;19.90;51.60;;;;;;4953037;28;20486;-55
2021/04/12 10:40:10;;;;;;;2.40;1.27;;;19.90;51.90;;;;;;4953157;28;20436;-52
2021/04/12 10:42:39;;;;;;;1.63;1.50;;;20.10;51.40;;;;;;4953058;28;20414;-57
2021/04/12 10:45:10;;;;;;;2.07;1.33;;;20.20;51.30;;;;;;4952891;28;20462;-56
2021/04/12 10:48:03;;;;;;;1.30;1.20;;;19.80;51.60;;;;;;4953095;28;20443;-55
2021/04/12 10:50:33;;;;;;;2.97;1.60;;;19.30;52.30;;;;;;4955431;28;20446;-55
2021/04/12 10:53:23;;;;;;;1.60;1.50;;;19.10;52.90;;;;;;4953068;28;20444;-54
2021/04/12 10:55:53;;;;;;;2.10;1.60;;;18.90;53.10;;;;;;4960767;28;20434;-53
2021/04/12 10:58:24;;;;;;;6.83;1.40;;;18.80;53.10;;;;;;4962772;28;20478;-54
2021/04/12 11:01:02;;;;;;;2.30;1.40;;;18.80;52.80;;;;;;4963374;28;20434;-56
2021/04/12 11:03:41;;;;;;;1.37;1.27;;;19.40;52.20;;;;;;4963246;28;20502;-54
2021/04/12 11:06:35;;;;;;;2.70;2.03;;;20.20;50.90;;;;;;4964094;28;20520;-56
2021/04/12 11:09:10;;;;;;;1.43;1.30;;;20.80;49.80;;;;;;4953228;28;20450;-54
2021/04/12 11:11:44;;;;;;;1.87;1.60;;;21.40;48.80;;;;;;4952986;28;20424;-51
2021/04/12 11:14:17;;;;;;;1.63;1.47;;;21.90;48.10;;;;;;4952730;28;20464;-54
2021/04/12 11:16:45;;;;;;;2.00;1.40;;;22.50;47.50;;;;;;4966692;28;20438;-56
2021/04/12 11:19:20;;;;;;;1.90;1.70;;;22.70;46.60;;;;;;4971971;28;20416;-57
2021/04/12 11:21:53;;;;;;;1.30;1.30;;;23.30;46.30;;;;;;4972032;28;20435;-57
2021/04/12 11:24:23;;;;;;;1.70;1.60;;;22.90;46.00;;;;;;4972031;28;20521;-53
2021/04/12 11:27:38;;;;;;;1.70;1.60;;;22.20;47.20;;;;;;4970722;28;20425;-54
2021/04/12 11:30:11;;;;;;;1.70;1.50;;;21.70;48.20;;;;;;4968526;28;20414;-56
2021/04/12 11:32:48;;;;;;;1.77;1.67;;;21.30;48.90;;;;;;4969420;28;20409;-57
2021/04/12 11:35:17;;;;;;;1.27;1.27;;;24.40;47.10;;;;;;4962479;28;20570;-58
2021/04/12 11:37:47;;;;;;;0.90;0.90;;;29.90;36.70;;;;;;4962464;28;20491;-58
2021/04/12 11:40:16;;;;;;;0.90;0.90;;;32.80;31.20;;;;;;4959748;28;20452;-58
2021/04/12 11:42:49;;;;;;;1.10;1.00;;;32.90;30.00;;;;;;4962254;28;20438;-56
2021/04/12 11:45:18;;;;;;;1.37;1.20;;;33.20;29.20;;;;;;4961785;28;20518;-56
2021/04/12 11:48:00;;;;;;;1.17;1.17;;;29.10;33.00;;;;;;4967736;28;20446;-55
2021/04/12 11:50:31;;;;;;;2.03;1.30;;;25.80;38.30;;;;;;4966429;28;20458;-56
2021/04/12 11:53:02;;;;;;;3.00;1.33;;;27.00;37.60;;;;;;4971614;28;20446;-54
2021/04/12 11:55:34;;;;;;;1.50;1.40;;;27.40;36.40;;;;;;4971900;28;20453;-55
2021/04/12 11:58:09;;;;;;;3.00;1.40;;;25.50;38.70;;;;;;4964343;28;20470;-51
2021/04/12 12:00:44;;;;;;;4.00;1.50;;;23.60;41.80;;;;;;4965801;28;20431;-55
2021/04/12 12:03:20;;;;;;;1.77;1.67;;;22.30;44.20;;;;;;4966628;28;20423;-52
2021/04/12 12:05:57;;;;;;;4.10;1.90;;;21.40;45.70;;;;;;4963325;28;20485;-53
2021/04/12 12:08:27;;;;;;;4.00;1.77;;;21.00;46.50;;;;;;4964596;28;20497;-55
2021/04/12 12:10:59;;;;;;;1.60;1.50;;;21.30;46.80;;;;;;4965138;28;20487;-51
2021/04/12 12:13:36;;;;;;;1.57;1.47;;;22.70;45.60;;;;;;4972582;28;20527;-52
2021/04/12 12:16:13;;;;;;;2.23;1.50;;;27.30;36.60;;;;;;4969663;28;20484;-53
2021/04/12 12:18:42;;;;;;;2.20;1.47;;;29.00;35.20;;;;;;4966370;28;20485;-55
2021/04/12 12:21:12;;;;;;;2.00;1.40;;;26.10;36.70;;;;;;4964105;28;20456;-53
2021/04/12 12:23:43;;;;;;;1.83;1.63;;;23.50;41.20;;;;;;4964739;28;20485;-51
2021/04/12 12:26:14;;;;;;;2.53;1.50;;;22.10;43.90;;;;;;4966413;28;20432;-51
2021/04/12 12:28:42;;;;;;;1.90;1.43;;;21.30;45.60;;;;;;4963226;28;20435;-49
2021/04/12 12:31:31;;;;;;;2.93;1.67;;;20.90;46.30;;;;;;4964085;28;20500;-53
2021/04/12 12:34:13;;;;;;;4.60;1.37;;;24.30;43.30;;;;;;4956623;28;20562;-55
2021/04/12 12:36:41;;;;;;;1.80;1.70;;;27.70;35.50;;;;;;4963492;28;20500;-54
2021/04/12 12:39:11;;;;;;;1.43;1.20;;;28.50;35.60;;;;;;4962956;28;20447;-55
2021/04/12 12:41:42;;;;;;;1.30;1.20;;;31.10;31.90;;;;;;4964582;28;20464;-54
2021/04/12 12:44:10;;;;;;;1.40;1.30;;;27.40;34.10;;;;;;4963601;28;20447;-54
2021/04/12 12:46:39;;;;;;;1.70;1.60;;;24.40;39.20;;;;;;4962794;28;20432;-56
2021/04/12 12:49:09;;;;;;;1.30;1.20;;;26.20;40.10;;;;;;4965421;28;20513;-58
2021/04/12 12:51:36;;;;;;;1.00;1.00;;;31.60;31.30;;;;;;4967738;28;20435;-57
2021/04/12 12:54:06;;;;;;;0.90;0.90;;;33.70;28.40;;;;;;4964040;28;20480;-58
2021/04/12 12:56:35;;;;;;;0.77;0.77;;;36.10;26.10;;;;;;4971946;28;20254;-56
2021/04/12 12:59:03;;;;;;;1.13;0.90;;;36.80;24.70;;;;;;4971112;28;20204;-54
2021/04/12 13:01:32;;;;;;;0.90;0.90;;;30.30;29.60;;;;;;4962284;28;20458;-54
2021/04/12 13:04:14;;;;;;;1.20;1.20;;;26.60;35.40;;;;;;4965406;28;20469;-55
2021/04/12 13:06:42;;;;;;;2.07;1.30;;;26.60;35.40;;;;;;4964426;28;20451;-53
2021/04/12 13:09:24;;;;;;;1.57;1.40;;;25.10;38.50;;;;;;4962718;28;20438;-55
2021/04/12 13:11:52;;;;;;;1.10;1.00;;;30.00;33.40;;;;;;4960098;28;20570;-57
2021/04/12 13:14:28;;;;;;;0.90;0.90;;;31.80;30.40;;;;;;4954226;28;20479;-57
2021/04/12 13:16:55;;;;;;;0.77;0.77;;;35.30;26.70;;;;;;4954837;28;20439;-58
2021/04/12 13:19:23;;;;;;;1.90;0.80;;;35.10;25.80;;;;;;4954617;28;20200;-57
2021/04/12 13:21:53;;;;;;;1.83;1.00;;;33.50;27.20;;;;;;4954616;28;20451;-56
2021/04/12 13:24:25;;;;;;;1.63;0.90;;;31.90;29.00;;;;;;4954434;28;20450;-56
2021/04/12 13:26:54;;;;;;;1.10;1.00;;;34.30;27.50;;;;;;4956911;28;20451;-55
2021/04/12 13:29:22;;;;;;;0.87;0.87;;;34.10;26.70;;;;;;4963055;28;20486;-56
2021/04/12 13:31:50;;;;;;;1.73;1.03;;;31.80;29.10;;;;;;4969613;28;20430;-56
2021/04/12 13:34:19;;;;;;;3.33;1.03;;;30.00;31.30;;;;;;4973498;28;20469;-55
2021/04/12 13:36:51;;;;;;;1.27;1.27;;;27.80;34.10;;;;;;4972049;28;20450;-55
2021/04/12 13:39:29;;;;;;;2.13;1.43;;;26.00;37.30;;;;;;4954794;28;20530;-51
2021/04/12 13:41:56;;;;;;;1.57;1.30;;;24.70;39.60;;;;;;4954502;28;20439;-53
2021/04/12 13:44:23;;;;;;;2.67;1.40;;;23.70;41.20;;;;;;4954255;28;20526;-51
2021/04/12 13:46:56;;;;;;;1.80;1.63;;;23.10;42.20;;;;;;4968140;28;20469;-54
2021/04/12 13:49:25;;;;;;;1.70;1.40;;;22.60;43.10;;;;;;4973639;28;20453;-51
2021/04/12 13:51:55;;;;;;;1.37;1.27;;;22.20;43.80;;;;;;4973462;28;20533;-52
2021/04/12 13:54:26;;;;;;;2.20;1.17;;;21.90;44.10;;;;;;4973105;28;20533;-54
2021/04/12 13:56:54;;;;;;;1.43;1.30;;;21.70;44.40;;;;;;4973659;28;20478;-55
2021/04/12 13:59:24;;;;;;;1.33;1.23;;;21.80;44.20;;;;;;4972862;28;20511;-53
2021/04/12 14:01:54;;;;;;;1.50;1.40;;;21.90;43.90;;;;;;4953972;28;20424;-54
2021/04/12 14:04:22;;;;;;;1.83;1.60;;;21.70;44.10;;;;;;4971021;28;20417;-53
2021/04/12 14:06:56;;;;;;;3.50;1.30;;;21.90;43.80;;;;;;4973150;28;20478;-53
2021/04/12 14:09:26;;;;;;;1.27;1.20;;;22.90;43.10;;;;;;4968877;28;20393;-53
2021/04/12 14:11:55;;;;;;;1.80;1.70;;;25.70;38.70;;;;;;4972345;28;20413;-55